sensor_id;sensor_type;location;lat;lon;timestamp;pressure;altitude;pressure_sealevel;temperature;humidity
76205;BME280;64986;55.672;37.628;2023-05-07T00:01:42;100539.59;;;0.23;60.63
76205;BME280;64986;55.672;37.628;2023-05-07T00:04:08;100533.88;;;0.07;61.08
76205;BME280;64986;55.672;37.628;2023-05-07T00:06:33;100528.34;;;0.00;61.22
76205;BME280;64986;55.672;37.628;2023-05-07T00:08:59;100527.50;;;-0.01;61.23
76205;BME280;64986;55.672;37.628;2023-05-07T00:11:26;100523.63;;;0.05;61.43
76205;BME280;64986;55.672;37.628;2023-05-07T00:13:53;100519.72;;;-0.01;61.20
76205;BME280;64986;55.672;37.628;2023-05-07T00:16:18;100530.94;;;0.00;61.65
76205;BME280;64986;55.672;37.628;2023-05-07T00:18:44;100525.53;;;0.03;61.52
76205;BME280;64986;55.672;37.628;2023-05-07T00:21:10;100529.25;;;-0.01;61.86
76205;BME280;64986;55.672;37.628;2023-05-07T00:23:36;100533.34;;;-0.10;61.80
76205;BME280;64986;55.672;37.628;2023-05-07T00:26:01;100531.38;;;-0.06;61.66
76205;BME280;64986;55.672;37.628;2023-05-07T00:28:27;100535.09;;;-0.10;61.85
76205;BME280;64986;55.672;37.628;2023-05-07T00:30:52;100539.13;;;-0.06;61.77
76205;BME280;64986;55.672;37.628;2023-05-07T00:33:18;100535.75;;;0.05;62.17
76205;BME280;64986;55.672;37.628;2023-05-07T00:35:45;100527.69;;;-0.15;62.07
76205;BME280;64986;55.672;37.628;2023-05-07T00:38:11;100537.69;;;-0.10;62.06
76205;BME280;64986;55.672;37.628;2023-05-07T00:40:36;100547.59;;;-0.04;62.12
76205;BME280;64986;55.672;37.628;2023-05-07T00:43:02;100543.38;;;-0.05;62.27
76205;BME280;64986;55.672;37.628;2023-05-07T00:45:28;100535.66;;;-0.18;62.25
76205;BME280;64986;55.672;37.628;2023-05-07T00:47:57;100551.31;;;-0.32;62.88
76205;BME280;64986;55.672;37.628;2023-05-07T00:50:25;100550.78;;;-0.24;62.70
76205;BME280;64986;55.672;37.628;2023-05-07T00:52:51;100544.19;;;-0.29;62.89
76205;BME280;64986;55.672;37.628;2023-05-07T00:55:17;100545.44;;;-0.34;62.96
76205;BME280;64986;55.672;37.628;2023-05-07T00:57:43;100547.53;;;-0.39;63.15
76205;BME280;64986;55.672;37.628;2023-05-07T01:00:10;100540.50;;;-0.37;63.32
76205;BME280;64986;55.672;37.628;2023-05-07T01:02:41;100560.56;;;-0.41;63.03
76205;BME280;64986;55.672;37.628;2023-05-07T01:05:08;100550.88;;;-0.50;63.49
76205;BME280;64986;55.672;37.628;2023-05-07T01:07:35;100550.88;;;-0.50;63.32
76205;BME280;64986;55.672;37.628;2023-05-07T01:10:03;100550.75;;;-0.48;63.37
76205;BME280;64986;55.672;37.628;2023-05-07T01:12:30;100554.41;;;-0.51;63.52
76205;BME280;64986;55.672;37.628;2023-05-07T01:14:57;100536.59;;;-0.56;63.21
76205;BME280;64986;55.672;37.628;2023-05-07T01:17:23;100548.81;;;-0.45;63.40
76205;BME280;64986;55.672;37.628;2023-05-07T01:19:49;100541.06;;;-0.58;63.61
76205;BME280;64986;55.672;37.628;2023-05-07T01:22:16;100549.63;;;-0.44;63.60
76205;BME280;64986;55.672;37.628;2023-05-07T01:24:46;100559.38;;;-0.61;64.28
76205;BME280;64986;55.672;37.628;2023-05-07T01:27:11;100551.31;;;-0.69;64.43
76205;BME280;64986;55.672;37.628;2023-05-07T01:29:37;100563.50;;;-0.58;63.69
76205;BME280;64986;55.672;37.628;2023-05-07T01:32:05;100560.53;;;-0.65;63.58
76205;BME280;64986;55.672;37.628;2023-05-07T01:34:32;100562.47;;;-0.68;64.06
76205;BME280;64986;55.672;37.628;2023-05-07T01:37:00;100559.06;;;-0.69;63.98
76205;BME280;64986;55.672;37.628;2023-05-07T01:39:28;100559.41;;;-0.73;64.12
76205;BME280;64986;55.672;37.628;2023-05-07T01:41:58;100558.25;;;-0.69;64.48
76205;BME280;64986;55.672;37.628;2023-05-07T01:44:25;100567.97;;;-0.60;63.97
76205;BME280;64986;55.672;37.628;2023-05-07T01:46:51;100572.09;;;-0.58;64.44
76205;BME280;64986;55.672;37.628;2023-05-07T01:49:17;100574.69;;;-0.58;64.20
76205;BME280;64986;55.672;37.628;2023-05-07T01:51:43;100580.06;;;-0.61;63.96
76205;BME280;64986;55.672;37.628;2023-05-07T01:54:09;100580.50;;;-0.67;64.06
76205;BME280;64986;55.672;37.628;2023-05-07T01:56:35;100584.19;;;-0.58;64.27
76205;BME280;64986;55.672;37.628;2023-05-07T01:59:00;100587.28;;;-0.53;64.10
76205;BME280;64986;55.672;37.628;2023-05-07T02:01:27;100589.66;;;-0.50;64.10
76205;BME280;64986;55.672;37.628;2023-05-07T02:03:53;100593.19;;;-0.51;63.89
76205;BME280;64986;55.672;37.628;2023-05-07T02:06:19;100600.72;;;-0.48;64.16
76205;BME280;64986;55.672;37.628;2023-05-07T02:08:45;100588.81;;;-0.38;64.13
76205;BME280;64986;55.672;37.628;2023-05-07T02:11:11;100599.38;;;-0.41;64.25
76205;BME280;64986;55.672;37.628;2023-05-07T02:13:37;100604.41;;;-0.26;63.85
76205;BME280;64986;55.672;37.628;2023-05-07T02:16:02;100607.09;;;-0.28;63.98
76205;BME280;64986;55.672;37.628;2023-05-07T02:18:28;100603.19;;;-0.34;64.01
76205;BME280;64986;55.672;37.628;2023-05-07T02:20:53;100604.41;;;-0.26;64.13
76205;BME280;64986;55.672;37.628;2023-05-07T02:23:19;100606.28;;;-0.29;64.26
76205;BME280;64986;55.672;37.628;2023-05-07T02:25:45;100604.50;;;-0.28;63.99
76205;BME280;64986;55.672;37.628;2023-05-07T02:28:11;100604.81;;;-0.20;64.05
76205;BME280;64986;55.672;37.628;2023-05-07T02:30:37;100610.25;;;-0.12;63.83
76205;BME280;64986;55.672;37.628;2023-05-07T02:33:03;100613.00;;;-0.02;63.35
76205;BME280;64986;55.672;37.628;2023-05-07T02:35:29;100614.34;;;0.04;63.44
76205;BME280;64986;55.672;37.628;2023-05-07T02:37:54;100612.59;;;0.04;63.75
76205;BME280;64986;55.672;37.628;2023-05-07T02:40:20;100605.06;;;0.01;63.60
76205;BME280;64986;55.672;37.628;2023-05-07T02:42:45;100617.44;;;0.09;63.77
76205;BME280;64986;55.672;37.628;2023-05-07T02:45:11;100621.97;;;0.18;63.34
76205;BME280;64986;55.672;37.628;2023-05-07T02:47:36;100627.25;;;0.16;63.33
76205;BME280;64986;55.672;37.628;2023-05-07T02:50:02;100627.41;;;0.26;63.36
76205;BME280;64986;55.672;37.628;2023-05-07T02:52:28;100628.63;;;0.33;63.22
76205;BME280;64986;55.672;37.628;2023-05-07T02:54:54;100633.94;;;0.43;62.76
76205;BME280;64986;55.672;37.628;2023-05-07T02:57:20;100626.88;;;0.45;63.15
76205;BME280;64986;55.672;37.628;2023-05-07T02:59:46;100634.16;;;0.64;61.89
76205;BME280;64986;55.672;37.628;2023-05-07T03:02:11;100643.19;;;0.58;62.27
76205;BME280;64986;55.672;37.628;2023-05-07T03:04:38;100643.00;;;0.61;61.98
76205;BME280;64986;55.672;37.628;2023-05-07T03:07:04;100629.69;;;0.66;62.12
76205;BME280;64986;55.672;37.628;2023-05-07T03:09:29;100638.16;;;0.68;61.95
76205;BME280;64986;55.672;37.628;2023-05-07T03:11:56;100628.97;;;0.64;62.57
76205;BME280;64986;55.672;37.628;2023-05-07T03:14:21;100637.72;;;0.74;61.64
76205;BME280;64986;55.672;37.628;2023-05-07T03:16:47;100640.66;;;0.69;62.24
76205;BME280;64986;55.672;37.628;2023-05-07T03:19:12;100647.06;;;0.88;61.69
76205;BME280;64986;55.672;37.628;2023-05-07T03:21:38;100645.97;;;0.79;62.09
76205;BME280;64986;55.672;37.628;2023-05-07T03:24:04;100638.66;;;0.73;62.48
76205;BME280;64986;55.672;37.628;2023-05-07T03:26:29;100654.13;;;0.86;62.23
76205;BME280;64986;55.672;37.628;2023-05-07T03:28:55;100652.75;;;0.93;61.98
76205;BME280;64986;55.672;37.628;2023-05-07T03:31:21;100670.84;;;0.81;62.48
76205;BME280;64986;55.672;37.628;2023-05-07T03:33:57;100650.59;;;0.87;62.65
76205;BME280;64986;55.672;37.628;2023-05-07T03:36:22;100667.13;;;0.97;61.94
76205;BME280;64986;55.672;37.628;2023-05-07T03:38:49;100661.28;;;1.06;62.20
76205;BME280;64986;55.672;37.628;2023-05-07T03:41:15;100660.56;;;1.15;61.72
76205;BME280;64986;55.672;37.628;2023-05-07T03:43:41;100662.72;;;1.21;61.75
76205;BME280;64986;55.672;37.628;2023-05-07T03:46:07;100667.19;;;1.30;60.98
76205;BME280;64986;55.672;37.628;2023-05-07T03:48:32;100663.03;;;1.28;61.29
76205;BME280;64986;55.672;37.628;2023-05-07T03:50:58;100666.13;;;1.33;61.05
76205;BME280;64986;55.672;37.628;2023-05-07T03:53:24;100657.28;;;1.35;60.89
76205;BME280;64986;55.672;37.628;2023-05-07T03:55:49;100670.59;;;1.42;60.66
76205;BME280;64986;55.672;37.628;2023-05-07T03:58:15;100666.16;;;1.44;60.54
76205;BME280;64986;55.672;37.628;2023-05-07T04:00:41;100663.88;;;1.51;60.27
76205;BME280;64986;55.672;37.628;2023-05-07T04:03:07;100688.44;;;1.47;60.25
76205;BME280;64986;55.672;37.628;2023-05-07T04:05:33;100669.31;;;1.48;60.13
76205;BME280;64986;55.672;37.628;2023-05-07T04:07:58;100672.75;;;1.59;60.16
76205;BME280;64986;55.672;37.628;2023-05-07T04:10:24;100672.88;;;1.69;59.54
76205;BME280;64986;55.672;37.628;2023-05-07T04:12:50;100679.69;;;1.81;58.72
76205;BME280;64986;55.672;37.628;2023-05-07T04:15:15;100689.28;;;1.70;59.13
76205;BME280;64986;55.672;37.628;2023-05-07T04:17:41;100684.31;;;1.78;59.01
76205;BME280;64986;55.672;37.628;2023-05-07T04:20:09;100690.81;;;1.83;58.75
76205;BME280;64986;55.672;37.628;2023-05-07T04:22:36;100695.88;;;1.85;58.31
76205;BME280;64986;55.672;37.628;2023-05-07T04:25:01;100691.38;;;1.87;58.43
76205;BME280;64986;55.672;37.628;2023-05-07T04:27:27;100695.28;;;1.92;58.56
76205;BME280;64986;55.672;37.628;2023-05-07T04:29:53;100696.69;;;2.08;58.00
76205;BME280;64986;55.672;37.628;2023-05-07T04:32:24;100702.34;;;2.13;57.96
76205;BME280;64986;55.672;37.628;2023-05-07T04:34:50;100696.44;;;2.22;57.45
76205;BME280;64986;55.672;37.628;2023-05-07T04:37:15;100692.41;;;2.18;57.46
76205;BME280;64986;55.672;37.628;2023-05-07T04:39:41;100696.31;;;2.23;57.06
76205;BME280;64986;55.672;37.628;2023-05-07T04:42:06;100698.16;;;2.33;57.02
76205;BME280;64986;55.672;37.628;2023-05-07T04:44:34;100701.34;;;2.36;56.56
76205;BME280;64986;55.672;37.628;2023-05-07T04:47:00;100709.50;;;2.43;56.10
76205;BME280;64986;55.672;37.628;2023-05-07T04:49:26;100701.53;;;2.56;56.05
76205;BME280;64986;55.672;37.628;2023-05-07T04:51:52;100701.50;;;2.67;55.92
76205;BME280;64986;55.672;37.628;2023-05-07T04:54:17;100707.59;;;2.77;55.70
76205;BME280;64986;55.672;37.628;2023-05-07T04:56:43;100702.38;;;2.88;55.28
76205;BME280;64986;55.672;37.628;2023-05-07T04:59:08;100708.72;;;2.95;54.92
76205;BME280;64986;55.672;37.628;2023-05-07T05:01:34;100706.75;;;3.09;54.30
76205;BME280;64986;55.672;37.628;2023-05-07T05:04:00;100704.19;;;2.97;54.60
76205;BME280;64986;55.672;37.628;2023-05-07T05:06:25;100700.16;;;3.04;54.87
76205;BME280;64986;55.672;37.628;2023-05-07T05:08:51;100711.69;;;3.12;54.30
76205;BME280;64986;55.672;37.628;2023-05-07T05:11:16;100714.69;;;3.28;54.15
76205;BME280;64986;55.672;37.628;2023-05-07T05:13:42;100713.41;;;3.22;53.59
76205;BME280;64986;55.672;37.628;2023-05-07T05:16:07;100710.44;;;3.27;53.31
76205;BME280;64986;55.672;37.628;2023-05-07T05:18:33;100715.19;;;3.43;53.13
76205;BME280;64986;55.672;37.628;2023-05-07T05:20:58;100712.19;;;3.47;52.75
76205;BME280;64986;55.672;37.628;2023-05-07T05:23:24;100715.91;;;3.54;51.77
76205;BME280;64986;55.672;37.628;2023-05-07T05:25:49;100714.72;;;3.58;51.58
76205;BME280;64986;55.672;37.628;2023-05-07T05:28:15;100717.66;;;3.44;51.22
76205;BME280;64986;55.672;37.628;2023-05-07T05:30:40;100723.34;;;3.59;51.29
76205;BME280;64986;55.672;37.628;2023-05-07T05:33:06;100712.03;;;3.70;50.85
76205;BME280;64986;55.672;37.628;2023-05-07T05:35:31;100715.41;;;3.91;50.25
76205;BME280;64986;55.672;37.628;2023-05-07T05:37:57;100740.25;;;3.95;49.82
76205;BME280;64986;55.672;37.628;2023-05-07T05:40:23;100729.03;;;4.04;49.44
76205;BME280;64986;55.672;37.628;2023-05-07T05:42:48;100726.78;;;3.90;48.88
76205;BME280;64986;55.672;37.628;2023-05-07T05:45:14;100733.84;;;4.09;48.47
76205;BME280;64986;55.672;37.628;2023-05-07T05:47:39;100705.06;;;4.20;48.40
76205;BME280;64986;55.672;37.628;2023-05-07T05:50:06;100718.94;;;4.30;47.68
76205;BME280;64986;55.672;37.628;2023-05-07T05:52:32;100723.25;;;4.60;47.49
76205;BME280;64986;55.672;37.628;2023-05-07T05:54:57;100736.16;;;4.52;46.81
76205;BME280;64986;55.672;37.628;2023-05-07T05:57:23;100723.84;;;4.93;46.25
76205;BME280;64986;55.672;37.628;2023-05-07T05:59:49;100733.56;;;5.10;46.00
76205;BME280;64986;55.672;37.628;2023-05-07T06:02:14;100734.09;;;5.33;45.74
76205;BME280;64986;55.672;37.628;2023-05-07T06:04:40;100737.66;;;5.98;44.93
76205;BME280;64986;55.672;37.628;2023-05-07T06:07:05;100695.94;;;6.06;43.44
76205;BME280;64986;55.672;37.628;2023-05-07T06:09:31;100735.72;;;6.28;42.29
76205;BME280;64986;55.672;37.628;2023-05-07T06:11:56;100741.06;;;6.36;41.70
76205;BME280;64986;55.672;37.628;2023-05-07T06:14:22;100740.97;;;6.46;40.88
76205;BME280;64986;55.672;37.628;2023-05-07T06:16:47;100728.06;;;6.62;41.28
76205;BME280;64986;55.672;37.628;2023-05-07T06:19:13;100743.09;;;6.60;40.94
76205;BME280;64986;55.672;37.628;2023-05-07T06:21:39;100763.97;;;6.42;40.65
76205;BME280;64986;55.672;37.628;2023-05-07T06:24:05;100743.50;;;6.37;40.55
76205;BME280;64986;55.672;37.628;2023-05-07T06:26:31;100749.38;;;6.67;40.56
76205;BME280;64986;55.672;37.628;2023-05-07T06:28:57;100730.25;;;6.66;39.62
76205;BME280;64986;55.672;37.628;2023-05-07T06:31:22;100741.16;;;6.34;39.87
76205;BME280;64986;55.672;37.628;2023-05-07T06:33:49;100741.66;;;6.48;39.28
76205;BME280;64986;55.672;37.628;2023-05-07T06:36:14;100749.31;;;6.77;39.21
76205;BME280;64986;55.672;37.628;2023-05-07T06:38:41;100735.41;;;6.76;38.65
76205;BME280;64986;55.672;37.628;2023-05-07T06:41:06;100728.88;;;6.17;38.81
76205;BME280;64986;55.672;37.628;2023-05-07T06:43:33;100741.41;;;5.76;40.28
76205;BME280;64986;55.672;37.628;2023-05-07T06:45:58;100734.91;;;6.00;39.98
76205;BME280;64986;55.672;37.628;2023-05-07T06:48:24;100744.25;;;6.48;39.32
76205;BME280;64986;55.672;37.628;2023-05-07T06:50:50;100744.81;;;6.51;38.88
76205;BME280;64986;55.672;37.628;2023-05-07T06:53:15;100755.88;;;6.63;38.48
76205;BME280;64986;55.672;37.628;2023-05-07T06:55:41;100745.22;;;6.74;38.51
76205;BME280;64986;55.672;37.628;2023-05-07T06:58:07;100742.78;;;7.34;38.27
76205;BME280;64986;55.672;37.628;2023-05-07T07:00:32;100733.34;;;8.01;36.68
76205;BME280;64986;55.672;37.628;2023-05-07T07:02:58;100730.66;;;8.27;36.09
76205;BME280;64986;55.672;37.628;2023-05-07T07:05:24;100723.34;;;8.39;35.35
76205;BME280;64986;55.672;37.628;2023-05-07T07:07:50;100746.00;;;7.80;35.61
76205;BME280;64986;55.672;37.628;2023-05-07T07:10:21;100730.44;;;7.27;35.99
76205;BME280;64986;55.672;37.628;2023-05-07T07:12:48;100731.66;;;7.14;36.11
76205;BME280;64986;55.672;37.628;2023-05-07T07:15:14;100742.00;;;6.80;37.36
76205;BME280;64986;55.672;37.628;2023-05-07T07:17:40;100746.19;;;6.91;36.98
76205;BME280;64986;55.672;37.628;2023-05-07T07:20:06;100741.22;;;6.70;36.83
76205;BME280;64986;55.672;37.628;2023-05-07T07:22:32;100742.13;;;6.61;37.46
76205;BME280;64986;55.672;37.628;2023-05-07T07:24:57;100733.06;;;7.27;36.39
76205;BME280;64986;55.672;37.628;2023-05-07T07:27:23;100743.22;;;7.56;36.17
76205;BME280;64986;55.672;37.628;2023-05-07T07:29:48;100760.88;;;7.28;35.24
76205;BME280;64986;55.672;37.628;2023-05-07T07:32:14;100737.72;;;6.97;35.70
76205;BME280;64986;55.672;37.628;2023-05-07T07:34:39;100745.69;;;7.31;35.11
76205;BME280;64986;55.672;37.628;2023-05-07T07:37:05;100727.28;;;7.23;35.04
76205;BME280;64986;55.672;37.628;2023-05-07T07:39:34;100735.38;;;7.56;33.92
76205;BME280;64986;55.672;37.628;2023-05-07T07:42:00;100722.25;;;7.56;34.49
76205;BME280;64986;55.672;37.628;2023-05-07T07:44:27;100745.44;;;7.68;34.02
76205;BME280;64986;55.672;37.628;2023-05-07T07:46:53;100739.38;;;7.68;33.36
76205;BME280;64986;55.672;37.628;2023-05-07T07:49:18;100724.72;;;8.17;33.16
76205;BME280;64986;55.672;37.628;2023-05-07T07:51:44;100727.47;;;8.58;31.98
76205;BME280;64986;55.672;37.628;2023-05-07T07:54:09;100730.09;;;8.50;32.06
76205;BME280;64986;55.672;37.628;2023-05-07T07:56:35;100735.56;;;8.30;32.37
76205;BME280;64986;55.672;37.628;2023-05-07T07:59:01;100726.97;;;8.12;32.43
76205;BME280;64986;55.672;37.628;2023-05-07T08:01:26;100719.44;;;8.09;32.63
76205;BME280;64986;55.672;37.628;2023-05-07T08:03:52;100716.63;;;8.02;32.81
76205;BME280;64986;55.672;37.628;2023-05-07T08:06:18;100724.47;;;8.37;32.31
76205;BME280;64986;55.672;37.628;2023-05-07T08:08:44;100719.41;;;8.43;31.57
76205;BME280;64986;55.672;37.628;2023-05-07T08:11:09;100720.06;;;8.45;30.73
76205;BME280;64986;55.672;37.628;2023-05-07T08:13:36;100722.81;;;8.36;31.40
76205;BME280;64986;55.672;37.628;2023-05-07T08:16:03;100722.69;;;8.45;31.20
76205;BME280;64986;55.672;37.628;2023-05-07T08:18:29;100719.75;;;8.48;30.93
76205;BME280;64986;55.672;37.628;2023-05-07T08:20:55;100713.56;;;8.23;30.27
76205;BME280;64986;55.672;37.628;2023-05-07T08:23:21;100710.84;;;7.99;30.23
76205;BME280;64986;55.672;37.628;2023-05-07T08:25:46;100711.06;;;8.48;30.13
76205;BME280;64986;55.672;37.628;2023-05-07T08:28:12;100711.25;;;9.20;29.81
76205;BME280;64986;55.672;37.628;2023-05-07T08:30:38;100706.22;;;9.73;28.93
76205;BME280;64986;55.672;37.628;2023-05-07T08:33:03;100706.34;;;10.27;28.40
76205;BME280;64986;55.672;37.628;2023-05-07T08:35:29;100704.94;;;10.48;26.99
76205;BME280;64986;55.672;37.628;2023-05-07T08:37:54;100709.75;;;9.41;28.19
76205;BME280;64986;55.672;37.628;2023-05-07T08:40:25;100732.63;;;9.25;28.85
76205;BME280;64986;55.672;37.628;2023-05-07T08:42:53;100699.78;;;8.96;28.64
76205;BME280;64986;55.672;37.628;2023-05-07T08:45:20;100711.59;;;9.33;28.00
76205;BME280;64986;55.672;37.628;2023-05-07T08:48:00;100709.53;;;9.76;27.22
76205;BME280;64986;55.672;37.628;2023-05-07T08:50:27;100705.63;;;9.55;27.69
76205;BME280;64986;55.672;37.628;2023-05-07T08:52:53;100715.03;;;9.97;28.20
76205;BME280;64986;55.672;37.628;2023-05-07T08:55:18;100719.41;;;10.13;27.00
76205;BME280;64986;55.672;37.628;2023-05-07T08:57:45;100713.69;;;10.01;27.30
76205;BME280;64986;55.672;37.628;2023-05-07T09:00:12;100711.31;;;9.83;27.44
76205;BME280;64986;55.672;37.628;2023-05-07T09:02:38;100713.03;;;10.07;27.47
76205;BME280;64986;55.672;37.628;2023-05-07T09:05:04;100721.28;;;9.96;26.78
76205;BME280;64986;55.672;37.628;2023-05-07T09:07:30;100712.69;;;9.63;27.03
76205;BME280;64986;55.672;37.628;2023-05-07T09:09:55;100713.72;;;9.37;27.20
76205;BME280;64986;55.672;37.628;2023-05-07T09:12:22;100707.59;;;10.09;27.26
76205;BME280;64986;55.672;37.628;2023-05-07T09:14:48;100715.97;;;10.74;26.45
76205;BME280;64986;55.672;37.628;2023-05-07T09:17:17;100703.19;;;10.63;24.86
76205;BME280;64986;55.672;37.628;2023-05-07T09:19:44;100716.56;;;11.22;25.89
76205;BME280;64986;55.672;37.628;2023-05-07T09:22:10;100700.53;;;11.91;25.57
76205;BME280;64986;55.672;37.628;2023-05-07T09:24:37;100702.13;;;12.58;24.27
76205;BME280;64986;55.672;37.628;2023-05-07T09:27:05;100701.28;;;13.21;24.03
76205;BME280;64986;55.672;37.628;2023-05-07T09:29:31;100702.66;;;15.29;22.22
76205;BME280;64986;55.672;37.628;2023-05-07T09:32:05;100702.66;;;15.29;22.22
76205;BME280;64986;55.672;37.628;2023-05-07T09:34:31;100695.31;;;14.91;22.11
76205;BME280;64986;55.672;37.628;2023-05-07T09:37:03;100704.88;;;15.25;20.50
76205;BME280;64986;55.672;37.628;2023-05-07T09:39:46;100708.44;;;14.38;22.04
76205;BME280;64986;55.672;37.628;2023-05-07T09:42:12;65559.31;;;-144.76;100.00
76205;BME280;64986;55.672;37.628;2023-05-07T09:44:40;65559.31;;;-144.76;100.00
76205;BME280;64986;55.672;37.628;2023-05-07T09:47:07;65559.31;;;-144.76;100.00
76205;BME280;64986;55.672;37.628;2023-05-07T09:49:36;100716.06;;;11.42;23.13
76205;BME280;64986;55.672;37.628;2023-05-07T09:52:04;100709.75;;;11.95;23.18
76205;BME280;64986;55.672;37.628;2023-05-07T09:54:32;65559.31;;;-144.76;100.00
76205;BME280;64986;55.672;37.628;2023-05-07T09:56:59;100708.31;;;14.66;21.24
76205;BME280;64986;55.672;37.628;2023-05-07T09:59:28;100689.22;;;16.01;20.38
76205;BME280;64986;55.672;37.628;2023-05-07T10:01:57;100684.00;;;17.39;19.01
76205;BME280;64986;55.672;37.628;2023-05-07T10:04:25;65559.31;;;-144.76;100.00
76205;BME280;64986;55.672;37.628;2023-05-07T10:06:51;100680.44;;;18.79;18.06
76205;BME280;64986;55.672;37.628;2023-05-07T10:09:18;100680.44;;;18.79;18.06
76205;BME280;64986;55.672;37.628;2023-05-07T10:11:43;100688.38;;;20.48;16.50
76205;BME280;64986;55.672;37.628;2023-05-07T10:14:10;100682.38;;;20.91;16.39
76205;BME280;64986;55.672;37.628;2023-05-07T10:16:36;100680.59;;;22.13;15.91
76205;BME280;64986;55.672;37.628;2023-05-07T10:19:08;100673.63;;;23.98;14.02
76205;BME280;64986;55.672;37.628;2023-05-07T10:21:39;100683.69;;;22.54;15.42
76205;BME280;64986;55.672;37.628;2023-05-07T10:24:13;100693.47;;;19.22;15.69
76205;BME280;64986;55.672;37.628;2023-05-07T10:26:47;100690.44;;;18.05;16.54
76205;BME280;64986;55.672;37.628;2023-05-07T10:32:38;100744.00;;;17.60;17.30
76205;BME280;64986;55.672;37.628;2023-05-07T10:35:12;100686.47;;;15.70;18.33
76205;BME280;64986;55.672;37.628;2023-05-07T10:37:40;100691.63;;;15.32;18.59
76205;BME280;64986;55.672;37.628;2023-05-07T10:40:06;100696.00;;;14.32;18.99
76205;BME280;64986;55.672;37.628;2023-05-07T10:42:32;100700.50;;;16.73;17.73
76205;BME280;64986;55.672;37.628;2023-05-07T10:45:11;100701.59;;;19.39;15.78
76205;BME280;64986;55.672;37.628;2023-05-07T10:48:13;100686.22;;;22.11;13.42
76205;BME280;64986;55.672;37.628;2023-05-07T10:50:47;100695.56;;;19.32;14.55
76205;BME280;64986;55.672;37.628;2023-05-07T10:55:49;100692.31;;;15.98;16.87
76205;BME280;64986;55.672;37.628;2023-05-07T11:03:13;100689.28;;;16.33;17.38
76205;BME280;64986;55.672;37.628;2023-05-07T11:05:40;100694.41;;;15.76;17.77
76205;BME280;64986;55.672;37.628;2023-05-07T11:08:06;100696.53;;;15.35;17.92
76205;BME280;64986;55.672;37.628;2023-05-07T11:10:57;100700.38;;;15.32;18.01
76205;BME280;64986;55.672;37.628;2023-05-07T11:13:59;100687.91;;;15.66;17.75
76205;BME280;64986;55.672;37.628;2023-05-07T11:16:25;100706.28;;;15.54;18.10
76205;BME280;64986;55.672;37.628;2023-05-07T11:18:55;100680.22;;;14.10;19.42
76205;BME280;64986;55.672;37.628;2023-05-07T11:21:40;100690.66;;;14.25;19.61
76205;BME280;64986;55.672;37.628;2023-05-07T11:24:07;100686.44;;;17.84;16.65
76205;BME280;64986;55.672;37.628;2023-05-07T11:26:50;100681.47;;;20.52;14.79
76205;BME280;64986;55.672;37.628;2023-05-07T11:29:17;100712.34;;;21.99;13.44
76205;BME280;64986;55.672;37.628;2023-05-07T11:31:48;100712.34;;;21.99;13.44
76205;BME280;64986;55.672;37.628;2023-05-07T11:34:15;100687.25;;;17.41;15.87
76205;BME280;64986;55.672;37.628;2023-05-07T11:36:47;100698.13;;;15.62;17.28
76205;BME280;64986;55.672;37.628;2023-05-07T11:39:33;100704.22;;;14.57;18.69
76205;BME280;64986;55.672;37.628;2023-05-07T11:41:59;100705.13;;;13.19;19.56
76205;BME280;64986;55.672;37.628;2023-05-07T11:44:25;100697.22;;;12.97;19.89
76205;BME280;64986;55.672;37.628;2023-05-07T11:47:04;100690.69;;;12.93;20.14
76205;BME280;64986;55.672;37.628;2023-05-07T11:49:29;100702.31;;;13.20;20.50
76205;BME280;64986;55.672;37.628;2023-05-07T11:51:56;100712.19;;;13.33;20.22
76205;BME280;64986;55.672;37.628;2023-05-07T11:54:21;100705.78;;;13.49;19.45
76205;BME280;64986;55.672;37.628;2023-05-07T11:56:47;100701.34;;;13.06;20.05
76205;BME280;64986;55.672;37.628;2023-05-07T11:59:18;100691.06;;;12.90;20.15
76205;BME280;64986;55.672;37.628;2023-05-07T12:01:46;100696.19;;;12.34;20.89
76205;BME280;64986;55.672;37.628;2023-05-07T12:04:12;100685.00;;;12.54;20.71
76205;BME280;64986;55.672;37.628;2023-05-07T12:06:38;100691.53;;;13.50;19.95
76205;BME280;64986;55.672;37.628;2023-05-07T12:09:04;100696.00;;;18.82;16.34
76205;BME280;64986;55.672;37.628;2023-05-07T12:11:32;100688.91;;;22.38;13.96
76205;BME280;64986;55.672;37.628;2023-05-07T12:13:58;100685.19;;;21.96;13.83
76205;BME280;64986;55.672;37.628;2023-05-07T12:16:23;100691.38;;;20.40;14.98
76205;BME280;64986;55.672;37.628;2023-05-07T12:18:50;100690.16;;;18.73;15.80
76205;BME280;64986;55.672;37.628;2023-05-07T12:21:15;100692.81;;;17.15;16.54
76205;BME280;64986;55.672;37.628;2023-05-07T12:23:42;100696.94;;;15.05;18.19
76205;BME280;64986;55.672;37.628;2023-05-07T12:26:08;100690.28;;;13.80;19.18
76205;BME280;64986;55.672;37.628;2023-05-07T12:28:37;100690.97;;;13.26;19.34
76205;BME280;64986;55.672;37.628;2023-05-07T12:31:07;100685.69;;;14.02;19.44
76205;BME280;64986;55.672;37.628;2023-05-07T12:33:34;100691.09;;;14.29;19.28
76205;BME280;64986;55.672;37.628;2023-05-07T12:36:03;100683.47;;;14.87;18.63
76205;BME280;64986;55.672;37.628;2023-05-07T12:38:35;100701.78;;;16.64;18.06
76205;BME280;64986;55.672;37.628;2023-05-07T12:41:01;100689.50;;;20.52;15.37
76205;BME280;64986;55.672;37.628;2023-05-07T12:43:27;100682.47;;;20.80;14.32
76205;BME280;64986;55.672;37.628;2023-05-07T12:45:55;100690.28;;;18.37;15.53
76205;BME280;64986;55.672;37.628;2023-05-07T12:48:22;100685.19;;;16.62;16.97
76205;BME280;64986;55.672;37.628;2023-05-07T12:50:59;100681.84;;;17.05;16.93
76205;BME280;64986;55.672;37.628;2023-05-07T12:53:27;100678.56;;;17.89;16.01
76205;BME280;64986;55.672;37.628;2023-05-07T12:55:55;100692.00;;;17.39;16.25